In Rescue
 
Open Full Screen Window  High Contrast Mode
December 15, 2019 6:04 PM EST
Weather Information
Wind Direction
  ---
Wind Speed
  00 kt (0 mph)
Wind Gust
  00 kt (0 mph)
Altimeter
30.16 in
Visibility
10 SM
Temperature
02° C
36° F
Dewpoint
-03° C
27° F
Humidity
70%
1hr Rain Fall
00.00 in.
24hr Rain Fall
00.00 in.
Sky Condition
Overcast @ 4,700 ft
Broken @ 3,400 ft
Scattered @ 2,000 ft
VFR

METAR KI69 152304Z AUTO 00000KT 10SM SCT020 BKN034 OVC047 02/M03 A3016 RMK AO2 T00201033

FAA Disclaimer: The data displayed is for advisory purposes only and is not to be used for flight planning or operations.